createdAt,value
2023-05-12T00:01:31.437Z,13.50
2023-05-12T00:04:00.941Z,13.50
2023-05-12T00:06:28.976Z,13.50
2023-05-12T00:08:56.673Z,13.50
2023-05-12T00:11:24.559Z,13.50
2023-05-12T00:13:52.280Z,13.40
2023-05-12T00:16:20.363Z,13.40
2023-05-12T00:18:48.157Z,13.40
2023-05-12T00:21:17.222Z,13.30
2023-05-12T00:23:44.961Z,13.20
2023-05-12T00:26:12.929Z,13.20
2023-05-12T00:28:40.648Z,13.10
2023-05-12T00:31:08.734Z,13.00
2023-05-12T00:33:36.431Z,13.00
2023-05-12T00:36:04.686Z,13.10
2023-05-12T00:38:34.552Z,13.10
2023-05-12T00:41:02.552Z,13.10
2023-05-12T00:43:31.472Z,13.10
2023-05-12T00:45:59.387Z,13.10
2023-05-12T00:48:27.249Z,13.10
2023-05-12T00:50:56.269Z,13.10
2023-05-12T00:53:24.415Z,13.10
2023-05-12T00:55:53.667Z,13.10
2023-05-12T00:58:21.387Z,13.10
2023-05-12T01:00:49.211Z,13.10
2023-05-12T01:03:17.392Z,13.10
2023-05-12T01:05:51.639Z,13.20
2023-05-12T01:08:21.160Z,13.20
2023-05-12T01:10:49.820Z,13.20
2023-05-12T01:13:18.910Z,13.10
2023-05-12T01:15:48.976Z,13.00
2023-05-12T01:18:20.494Z,13.00
2023-05-12T01:20:49.249Z,13.00
2023-05-12T01:23:20.758Z,12.80
2023-05-12T01:25:51.093Z,12.80
2023-05-12T01:28:21.353Z,12.70
2023-05-12T01:30:50.011Z,12.70
2023-05-12T01:33:17.804Z,12.80
2023-05-12T01:35:45.711Z,12.80
2023-05-12T01:38:13.398Z,12.80
2023-05-12T01:40:41.092Z,12.90
2023-05-12T01:43:08.783Z,12.90
2023-05-12T01:45:38.691Z,12.80
2023-05-12T01:48:06.801Z,12.80
2023-05-12T01:50:34.529Z,12.80
2023-05-12T01:53:02.206Z,12.80
2023-05-12T01:55:29.936Z,12.70
2023-05-12T01:57:57.606Z,12.70
2023-05-12T02:00:25.355Z,12.80
2023-05-12T02:02:54.532Z,12.80
2023-05-12T02:05:22.304Z,12.60
2023-05-12T02:07:50.128Z,12.70
2023-05-12T02:10:18.347Z,12.70
2023-05-12T02:12:46.343Z,12.70
2023-05-12T02:15:14.071Z,12.70
2023-05-12T02:17:41.793Z,12.60
2023-05-12T02:20:12.963Z,12.50
2023-05-12T02:22:40.629Z,12.50
2023-05-12T02:25:09.212Z,12.50
2023-05-12T02:27:36.882Z,12.50
2023-05-12T02:30:05.122Z,12.50
2023-05-12T02:32:32.940Z,12.40
2023-05-12T02:35:00.986Z,12.30
2023-05-12T02:37:30.060Z,12.30
2023-05-12T02:39:57.715Z,12.30
2023-05-12T02:42:28.772Z,12.30
2023-05-12T02:44:56.539Z,12.30
2023-05-12T02:47:24.395Z,12.20
2023-05-12T02:49:52.329Z,12.20
2023-05-12T02:52:20.073Z,12.20
2023-05-12T02:54:49.070Z,12.20
2023-05-12T02:57:16.777Z,12.00
2023-05-12T02:59:44.499Z,12.00
2023-05-12T03:02:12.345Z,12.00
2023-05-12T03:04:40.198Z,12.00
2023-05-12T03:07:08.606Z,11.90
2023-05-12T03:09:36.324Z,11.80
2023-05-12T03:12:06.103Z,11.90
2023-05-12T03:14:33.832Z,11.80
2023-05-12T03:17:01.566Z,11.80
2023-05-12T03:19:29.264Z,11.80
2023-05-12T03:21:57.036Z,11.80
2023-05-12T03:24:24.778Z,11.70
2023-05-12T03:26:52.496Z,11.70
2023-05-12T03:29:21.517Z,11.50
2023-05-12T03:31:49.208Z,11.40
2023-05-12T03:34:16.948Z,11.30
2023-05-12T03:36:44.659Z,11.30
2023-05-12T03:39:12.368Z,11.30
2023-05-12T03:41:40.299Z,11.20
2023-05-12T03:44:09.933Z,11.20
2023-05-12T03:46:39.102Z,11.30
2023-05-12T03:49:06.876Z,11.40
2023-05-12T03:51:34.627Z,11.30
2023-05-12T03:54:02.508Z,11.20
2023-05-12T03:56:30.248Z,11.30
2023-05-12T03:58:58.350Z,11.30
2023-05-12T04:01:26.077Z,11.40
2023-05-12T04:03:55.229Z,11.30
2023-05-12T04:06:23.053Z,11.30
2023-05-12T04:08:50.781Z,11.30
2023-05-12T04:11:18.478Z,11.20
2023-05-12T04:13:46.152Z,11.20
2023-05-12T04:16:14.192Z,11.20
2023-05-12T04:18:42.017Z,11.10
2023-05-12T04:21:11.122Z,11.10
2023-05-12T04:23:38.840Z,11.10
2023-05-12T04:26:06.691Z,11.10
2023-05-12T04:28:34.402Z,11.10
2023-05-12T04:31:04.545Z,11.20
2023-05-12T04:33:32.528Z,11.00
2023-05-12T04:36:00.782Z,11.10
2023-05-12T04:38:29.925Z,11.10
2023-05-12T04:40:59.766Z,11.10
2023-05-12T04:46:00.172Z,11.30
2023-05-12T04:48:28.284Z,11.50
2023-05-12T04:50:56.087Z,11.60
2023-05-12T04:53:23.811Z,11.70
2023-05-12T04:55:52.916Z,11.60
2023-05-12T04:58:20.660Z,11.60
2023-05-12T05:00:48.663Z,11.60
2023-05-12T05:03:16.555Z,11.70
2023-05-12T05:05:44.339Z,11.60
2023-05-12T05:08:12.073Z,11.70
2023-05-12T05:10:39.823Z,11.70
2023-05-12T05:13:08.865Z,11.70
2023-05-12T05:15:36.679Z,11.70
2023-05-12T05:18:05.876Z,11.70
2023-05-12T05:20:34.356Z,11.90
2023-05-12T05:23:02.274Z,11.90
2023-05-12T05:25:29.940Z,12.00
2023-05-12T05:27:58.237Z,12.00
2023-05-12T05:30:27.422Z,12.20
2023-05-12T05:32:55.131Z,12.10
2023-05-12T05:35:22.960Z,12.20
2023-05-12T05:37:53.682Z,12.30
2023-05-12T05:40:21.942Z,12.50
2023-05-12T05:42:49.645Z,12.60
2023-05-12T05:45:17.511Z,12.70
2023-05-12T05:47:49.859Z,12.80
2023-05-12T05:50:17.655Z,12.80
2023-05-12T05:52:45.441Z,12.90
2023-05-12T05:55:13.504Z,13.10
2023-05-12T05:57:41.205Z,13.10
2023-05-12T06:00:10.277Z,13.20
2023-05-12T06:02:38.086Z,13.30
2023-05-12T06:05:08.018Z,13.40
2023-05-12T06:07:35.878Z,13.50
2023-05-12T06:10:04.191Z,13.50
2023-05-12T06:12:31.885Z,13.50
2023-05-12T06:14:59.566Z,13.60
2023-05-12T06:17:27.599Z,13.70
2023-05-12T06:19:55.430Z,13.80
2023-05-12T06:22:25.083Z,13.90
2023-05-12T06:24:53.336Z,14.00
2023-05-12T06:27:21.098Z,14.10
2023-05-12T06:29:48.800Z,14.20
2023-05-12T06:32:16.855Z,14.20
2023-05-12T06:34:44.544Z,14.20
2023-05-12T06:37:12.477Z,14.30
2023-05-12T06:39:41.588Z,14.50
2023-05-12T06:42:09.410Z,14.50
2023-05-12T06:44:38.499Z,14.60
2023-05-12T06:47:08.004Z,14.70
2023-05-12T06:49:37.959Z,14.80
2023-05-12T06:52:06.438Z,15.00
2023-05-12T06:54:34.822Z,15.10
2023-05-12T06:57:05.104Z,15.20
2023-05-12T06:59:32.814Z,15.50
2023-05-12T07:02:00.608Z,15.60
2023-05-12T07:04:29.651Z,15.80
2023-05-12T07:06:57.574Z,15.90
2023-05-12T07:09:25.331Z,16.10
2023-05-12T07:11:53.068Z,16.20
2023-05-12T07:14:22.198Z,16.40
2023-05-12T07:16:49.917Z,16.60
2023-05-12T07:19:17.634Z,16.80
2023-05-12T07:21:45.405Z,16.90
2023-05-12T07:24:13.879Z,17.10
2023-05-12T07:26:41.613Z,17.20
2023-05-12T07:29:13.432Z,17.40
2023-05-12T07:31:42.967Z,17.70
2023-05-12T07:34:10.888Z,17.90
2023-05-12T07:36:38.561Z,18.00
2023-05-12T07:39:06.987Z,18.20
2023-05-12T07:41:34.757Z,18.40
2023-05-12T07:44:03.164Z,18.60
2023-05-12T07:46:30.966Z,18.80
2023-05-12T07:49:00.149Z,19.00
2023-05-12T07:51:27.872Z,19.10
2023-05-12T07:53:57.955Z,19.20
2023-05-12T07:56:25.794Z,19.30
2023-05-12T07:58:53.618Z,19.50
2023-05-12T08:01:21.366Z,19.60
2023-05-12T08:03:51.203Z,20.00
2023-05-12T08:06:20.502Z,20.30
2023-05-12T08:08:48.284Z,20.80
2023-05-12T08:11:16.022Z,21.90
2023-05-12T08:13:43.710Z,21.90
2023-05-12T08:16:11.426Z,21.70
2023-05-12T08:18:39.553Z,21.80
2023-05-12T08:21:07.649Z,22.00
2023-05-12T08:23:37.707Z,22.30
2023-05-12T08:26:05.876Z,23.20
2023-05-12T08:28:34.188Z,23.40
2023-05-12T08:31:04.832Z,23.30
2023-05-12T08:33:32.917Z,24.00
2023-05-12T08:36:01.977Z,25.50
2023-05-12T08:38:29.741Z,27.30
2023-05-12T08:41:12.418Z,28.80
2023-05-12T08:43:44.819Z,30.60
2023-05-12T08:46:13.098Z,32.50
2023-05-12T08:48:41.684Z,33.60
2023-05-12T08:51:11.968Z,32.70
2023-05-12T08:53:40.447Z,33.50
2023-05-12T08:58:59.763Z,34.40
2023-05-12T09:01:27.808Z,35.10
2023-05-12T09:03:55.608Z,34.80
2023-05-12T09:06:23.702Z,35.50
2023-05-12T09:08:52.190Z,36.80
2023-05-12T09:11:21.871Z,37.10
2023-05-12T09:13:56.083Z,37.30
2023-05-12T09:16:25.181Z,37.40
2023-05-12T09:18:54.736Z,37.70
2023-05-12T09:21:23.044Z,37.40
2023-05-12T09:23:58.005Z,36.30
2023-05-12T09:26:28.462Z,37.10
2023-05-12T09:29:08.107Z,38.10
2023-05-12T09:31:36.074Z,38.30
2023-05-12T09:34:08.718Z,38.10
2023-05-12T09:36:36.645Z,38.00
2023-05-12T09:39:05.580Z,38.20
2023-05-12T09:41:36.864Z,39.10
2023-05-12T09:44:04.869Z,38.80
2023-05-12T09:46:32.777Z,38.30
2023-05-12T09:49:01.102Z,38.70
2023-05-12T09:51:29.227Z,38.70
2023-05-12T09:53:57.147Z,38.70
2023-05-12T09:56:33.748Z,37.70
2023-05-12T09:59:05.329Z,37.40
2023-05-12T10:01:33.203Z,37.50
2023-05-12T10:04:01.088Z,37.30
2023-05-12T10:06:31.486Z,38.60
2023-05-12T10:09:07.052Z,38.80
2023-05-12T10:11:35.845Z,39.10
2023-05-12T10:14:06.673Z,38.90
2023-05-12T10:16:35.172Z,39.20
2023-05-12T10:19:04.346Z,39.70
2023-05-12T10:21:33.333Z,39.90
2023-05-12T10:24:04.521Z,39.40
2023-05-12T10:26:33.446Z,39.00
2023-05-12T10:29:01.764Z,38.00
2023-05-12T10:31:31.666Z,39.30
2023-05-12T10:34:00.394Z,39.20
2023-05-12T10:36:28.770Z,38.30
2023-05-12T10:38:57.136Z,37.70
2023-05-12T10:41:31.515Z,35.50
2023-05-12T10:43:59.525Z,35.70
2023-05-12T10:46:28.355Z,36.10
2023-05-12T10:48:59.807Z,37.40
2023-05-12T10:51:31.813Z,37.70
2023-05-12T10:54:01.074Z,38.00
2023-05-12T10:56:30.792Z,37.80
2023-05-12T10:59:15.205Z,37.90
2023-05-12T11:01:45.489Z,37.40
2023-05-12T11:04:20.398Z,37.40
2023-05-12T11:06:59.786Z,36.80
2023-05-12T11:09:29.372Z,36.30
2023-05-12T11:11:58.581Z,36.10
2023-05-12T11:14:26.782Z,35.90
2023-05-12T11:16:54.674Z,35.10
2023-05-12T11:19:23.910Z,34.10
2023-05-12T11:21:51.928Z,32.70
2023-05-12T11:24:21.055Z,30.60
2023-05-12T11:26:51.975Z,29.00
2023-05-12T11:29:20.494Z,27.90
2023-05-12T11:31:49.731Z,27.30
2023-05-12T11:34:21.709Z,26.70
2023-05-12T11:36:53.399Z,26.40
2023-05-12T11:39:22.433Z,26.10
2023-05-12T11:41:56.659Z,26.00
2023-05-12T11:44:30.352Z,25.80
2023-05-12T11:46:59.364Z,26.10
2023-05-12T11:49:27.827Z,26.00
2023-05-12T11:51:58.580Z,25.90
2023-05-12T11:54:28.947Z,25.90
2023-05-12T11:56:58.271Z,25.90
2023-05-12T11:59:30.882Z,26.20
2023-05-12T12:01:59.987Z,26.10
2023-05-12T12:04:35.554Z,26.30
2023-05-12T12:07:06.111Z,25.70
2023-05-12T12:09:47.640Z,25.60
2023-05-12T12:12:16.258Z,25.70
2023-05-12T12:14:45.978Z,25.80
2023-05-12T12:17:15.006Z,25.70
2023-05-12T12:19:43.482Z,26.00
2023-05-12T12:22:13.462Z,26.10
2023-05-12T12:24:41.330Z,26.00
2023-05-12T12:27:09.446Z,25.70
2023-05-12T12:29:37.190Z,25.70
2023-05-12T12:32:05.401Z,25.90
2023-05-12T12:34:35.641Z,26.10
2023-05-12T12:37:03.515Z,26.20
2023-05-12T12:39:32.824Z,26.10
2023-05-12T12:42:00.747Z,26.10
2023-05-12T12:44:31.842Z,26.10
2023-05-12T12:47:01.244Z,26.00
2023-05-12T12:52:29.661Z,26.40
2023-05-12T12:54:58.775Z,26.30
2023-05-12T12:57:27.315Z,26.00
2023-05-12T12:59:55.517Z,25.10
2023-05-12T13:02:23.616Z,24.50
2023-05-12T13:04:51.938Z,24.40
2023-05-12T13:07:19.686Z,24.60
2023-05-12T13:09:47.522Z,24.60
2023-05-12T13:12:16.771Z,24.40
2023-05-12T13:14:44.537Z,24.20
2023-05-12T13:17:12.370Z,24.20
2023-05-12T13:19:40.290Z,24.20
2023-05-12T13:22:08.038Z,24.10
2023-05-12T13:24:36.346Z,24.00
2023-05-12T13:27:08.139Z,23.70
2023-05-12T13:29:37.317Z,23.60
2023-05-12T13:32:05.336Z,23.70
2023-05-12T13:34:33.160Z,23.90
2023-05-12T13:37:00.915Z,24.10
2023-05-12T13:39:28.637Z,24.20
2023-05-12T13:41:56.360Z,24.30
2023-05-12T13:44:24.116Z,24.20
2023-05-12T13:46:53.192Z,24.40
2023-05-12T13:49:20.954Z,24.60
2023-05-12T13:51:49.080Z,24.30
2023-05-12T13:54:17.277Z,24.10
2023-05-12T13:56:45.004Z,24.00
2023-05-12T13:59:13.827Z,24.00
2023-05-12T14:01:41.655Z,24.20
2023-05-12T14:04:11.101Z,24.40
2023-05-12T14:06:38.904Z,24.70
2023-05-12T14:09:06.946Z,24.80
2023-05-12T14:11:35.417Z,25.00
2023-05-12T14:14:04.279Z,24.70
2023-05-12T14:16:32.107Z,24.20
2023-05-12T14:19:00.697Z,24.00
2023-05-12T14:21:29.834Z,23.80
2023-05-12T14:23:57.600Z,23.80
2023-05-12T14:26:26.112Z,24.00
2023-05-12T14:28:53.882Z,24.00
2023-05-12T14:31:21.830Z,24.00
2023-05-12T14:33:49.546Z,23.90
2023-05-12T14:36:17.299Z,23.90
2023-05-12T14:38:46.300Z,24.00
2023-05-12T14:41:14.021Z,24.00
2023-05-12T14:43:41.793Z,24.10
2023-05-12T14:46:09.524Z,24.10
2023-05-12T14:48:37.727Z,24.10
2023-05-12T14:51:05.632Z,24.20
2023-05-12T14:53:33.761Z,24.30
2023-05-12T14:56:02.797Z,24.40
2023-05-12T14:58:30.855Z,24.30
2023-05-12T15:00:59.359Z,24.10
2023-05-12T15:03:27.295Z,24.10
2023-05-12T15:06:05.576Z,24.00
2023-05-12T15:08:34.888Z,24.00
2023-05-12T15:11:04.427Z,23.80
2023-05-12T15:13:32.390Z,23.60
2023-05-12T15:16:00.231Z,23.40
2023-05-12T15:18:28.127Z,23.60
2023-05-12T15:20:56.077Z,23.60
2023-05-12T15:23:24.043Z,23.50
2023-05-12T15:25:51.893Z,23.50
2023-05-12T15:28:21.259Z,23.50
2023-05-12T15:30:55.718Z,23.40
2023-05-12T15:33:23.675Z,23.20
2023-05-12T15:35:51.823Z,23.20
2023-05-12T15:38:19.935Z,23.40
2023-05-12T15:40:47.989Z,23.50
2023-05-12T15:43:15.902Z,23.50
2023-05-12T15:45:45.116Z,23.40
2023-05-12T15:48:13.006Z,23.60
2023-05-12T15:50:40.822Z,23.60
2023-05-12T15:53:08.739Z,23.70
2023-05-12T15:55:36.856Z,23.70
2023-05-12T15:58:05.410Z,23.30
2023-05-12T16:00:33.514Z,23.00
2023-05-12T16:03:02.898Z,23.00
2023-05-12T16:05:31.873Z,23.10
2023-05-12T16:07:59.597Z,23.00
2023-05-12T16:10:27.312Z,22.80
2023-05-12T16:12:55.160Z,22.80
2023-05-12T16:15:23.007Z,22.70
2023-05-12T16:17:51.000Z,22.80
2023-05-12T16:20:20.368Z,22.90
2023-05-12T16:22:48.579Z,22.80
2023-05-12T16:25:16.518Z,22.70
2023-05-12T16:27:44.198Z,22.60
2023-05-12T16:30:13.332Z,22.50
2023-05-12T16:32:41.764Z,22.40
2023-05-12T16:35:10.169Z,22.30
2023-05-12T16:37:39.305Z,22.40
2023-05-12T16:40:09.614Z,22.30
2023-05-12T16:42:37.581Z,22.20
2023-05-12T16:45:06.402Z,22.00
2023-05-12T16:47:34.208Z,22.00
2023-05-12T16:50:02.111Z,21.90
2023-05-12T16:52:29.993Z,21.70
2023-05-12T16:54:59.193Z,21.60
2023-05-12T16:57:26.947Z,21.50
2023-05-12T16:59:54.711Z,21.40
2023-05-12T17:02:22.530Z,21.40
2023-05-12T17:04:50.499Z,21.20
2023-05-12T17:07:18.619Z,21.20
2023-05-12T17:09:46.389Z,21.20
2023-05-12T17:12:16.046Z,21.10
2023-05-12T17:14:45.963Z,21.10
2023-05-12T17:17:18.041Z,21.00
2023-05-12T17:19:45.898Z,21.00
2023-05-12T17:22:13.675Z,20.80
2023-05-12T17:24:41.390Z,20.70
2023-05-12T17:27:09.128Z,20.60
2023-05-12T17:29:38.174Z,20.50
2023-05-12T17:32:06.994Z,20.30
2023-05-12T17:34:34.745Z,20.30
2023-05-12T17:37:03.832Z,20.20
2023-05-12T17:39:31.566Z,20.20
2023-05-12T17:41:59.293Z,20.10
2023-05-12T17:44:27.049Z,20.00
2023-05-12T17:46:56.661Z,20.00
2023-05-12T17:49:24.565Z,19.90
2023-05-12T17:51:54.753Z,19.80
2023-05-12T17:54:22.749Z,19.70
2023-05-12T17:56:50.509Z,19.50
2023-05-12T17:59:18.308Z,19.30
2023-05-12T18:01:46.109Z,19.20
2023-05-12T18:04:15.341Z,19.10
2023-05-12T18:06:43.108Z,19.10
2023-05-12T18:09:11.694Z,18.90
2023-05-12T18:11:39.682Z,18.90
2023-05-12T18:14:07.438Z,18.70
2023-05-12T18:16:35.187Z,18.60
2023-05-12T18:19:03.966Z,18.50
2023-05-12T18:21:33.653Z,18.50
2023-05-12T18:24:01.755Z,18.40
2023-05-12T18:26:29.885Z,18.20
2023-05-12T18:28:57.584Z,18.20
2023-05-12T18:31:26.938Z,18.10
2023-05-12T18:33:54.851Z,18.10
2023-05-12T18:36:23.130Z,18.00
2023-05-12T18:38:52.292Z,17.80
2023-05-12T18:41:21.305Z,17.60
2023-05-12T18:43:50.213Z,17.50
2023-05-12T18:46:18.122Z,17.30
2023-05-12T18:48:45.931Z,17.20
2023-05-12T18:51:13.738Z,17.10
2023-05-12T18:53:41.513Z,17.10
2023-05-12T18:56:10.905Z,17.00
2023-05-12T18:58:39.285Z,17.00
2023-05-12T19:01:07.305Z,16.80
2023-05-12T19:03:35.133Z,16.80
2023-05-12T19:06:02.975Z,16.70
2023-05-12T19:08:31.283Z,16.50
2023-05-12T19:10:59.812Z,16.40
2023-05-12T19:13:28.937Z,16.40
2023-05-12T19:15:56.769Z,16.20
2023-05-12T19:18:24.654Z,16.20
2023-05-12T19:20:52.431Z,16.10
2023-05-12T19:23:20.484Z,16.10
2023-05-12T19:25:48.302Z,16.00
2023-05-12T19:28:16.344Z,15.90
2023-05-12T19:30:45.453Z,15.90
2023-05-12T19:33:14.242Z,15.80
2023-05-12T19:35:43.781Z,15.80
2023-05-12T19:38:11.586Z,15.70
2023-05-12T19:40:39.274Z,15.70
2023-05-12T19:43:09.972Z,15.50
2023-05-12T19:45:37.807Z,15.40
2023-05-12T19:48:07.667Z,15.40
2023-05-12T19:50:35.893Z,15.40
2023-05-12T19:53:03.935Z,15.30
2023-05-12T19:55:31.766Z,15.30
2023-05-12T19:58:01.938Z,15.20
2023-05-12T20:00:29.851Z,15.30
2023-05-12T20:02:57.727Z,15.20
2023-05-12T20:05:26.964Z,15.10
2023-05-12T20:07:55.327Z,15.00
2023-05-12T20:10:23.370Z,15.00
2023-05-12T20:12:51.721Z,15.00
2023-05-12T20:15:19.692Z,14.90
2023-05-12T20:17:48.016Z,14.80
2023-05-12T20:20:16.563Z,14.80
2023-05-12T20:22:45.696Z,14.70
2023-05-12T20:25:16.258Z,14.70
2023-05-12T20:27:45.072Z,14.50
2023-05-12T20:30:13.810Z,14.40
2023-05-12T20:32:41.700Z,14.50
2023-05-12T20:35:10.413Z,14.40
2023-05-12T20:37:38.945Z,14.50
2023-05-12T20:40:10.826Z,14.40
2023-05-12T20:42:38.897Z,14.40
2023-05-12T20:45:09.349Z,14.30
2023-05-12T20:47:37.849Z,14.30
2023-05-12T20:50:06.620Z,14.20
2023-05-12T20:52:34.579Z,14.20
2023-05-12T20:55:02.346Z,14.10
2023-05-12T20:57:31.374Z,14.10
2023-05-12T20:59:59.062Z,14.10
2023-05-12T21:02:28.610Z,14.00
2023-05-12T21:04:57.686Z,14.10
2023-05-12T21:07:25.524Z,14.00
2023-05-12T21:09:55.990Z,13.90
2023-05-12T21:12:23.941Z,13.90
2023-05-12T21:14:53.764Z,13.80
2023-05-12T21:17:21.909Z,13.80
2023-05-12T21:19:49.679Z,13.70
2023-05-12T21:22:17.687Z,13.70
2023-05-12T21:24:45.584Z,13.70
2023-05-12T21:27:13.589Z,13.60
2023-05-12T21:29:41.471Z,13.80
2023-05-12T21:32:11.195Z,13.50
2023-05-12T21:34:39.013Z,13.50
2023-05-12T21:37:07.087Z,13.50
2023-05-12T21:39:35.190Z,13.40
2023-05-12T21:42:03.111Z,13.40
2023-05-12T21:44:30.893Z,13.30
2023-05-12T21:46:59.387Z,13.30
2023-05-12T21:49:28.497Z,13.20
2023-05-12T21:51:56.393Z,13.20
2023-05-12T21:54:24.141Z,13.20
2023-05-12T21:56:52.498Z,13.20
2023-05-12T21:59:20.701Z,13.10
2023-05-12T22:01:48.536Z,13.00
2023-05-12T22:04:16.629Z,13.00
2023-05-12T22:06:45.779Z,13.00
2023-05-12T22:09:13.645Z,13.00
2023-05-12T22:11:42.055Z,12.80
2023-05-12T22:14:09.866Z,12.90
2023-05-12T22:16:41.968Z,12.90
2023-05-12T22:19:10.880Z,12.80
2023-05-12T22:21:39.107Z,12.90
2023-05-12T22:24:10.300Z,12.80
2023-05-12T22:26:38.106Z,12.80
2023-05-12T22:29:05.921Z,12.70
2023-05-12T22:31:33.806Z,12.70
2023-05-12T22:34:01.645Z,12.60
2023-05-12T22:36:29.450Z,12.70
2023-05-12T22:38:57.158Z,12.60
2023-05-12T22:41:26.300Z,12.40
2023-05-12T22:43:54.159Z,12.50
2023-05-12T22:46:21.957Z,12.40
2023-05-12T22:48:50.885Z,12.40
2023-05-12T22:51:18.869Z,12.30
2023-05-12T22:53:46.811Z,12.20
2023-05-12T22:56:14.595Z,12.20
2023-05-12T22:58:43.805Z,12.10
2023-05-12T23:01:12.004Z,12.00
2023-05-12T23:03:39.842Z,12.00
2023-05-12T23:06:08.088Z,12.10
2023-05-12T23:08:36.265Z,12.00
2023-05-12T23:11:04.064Z,12.00
2023-05-12T23:13:32.396Z,12.00
2023-05-12T23:16:01.487Z,11.90
2023-05-12T23:18:29.305Z,11.90
2023-05-12T23:20:57.170Z,11.90
2023-05-12T23:23:24.965Z,11.80
2023-05-12T23:25:52.708Z,11.70
2023-05-12T23:28:20.626Z,11.70
2023-05-12T23:30:48.377Z,11.60
2023-05-12T23:33:17.736Z,11.60
2023-05-12T23:35:45.589Z,11.60
2023-05-12T23:38:13.301Z,11.60
2023-05-12T23:40:41.053Z,11.60
2023-05-12T23:43:09.488Z,11.60
2023-05-12T23:45:37.304Z,11.60
2023-05-12T23:48:05.565Z,11.50
2023-05-12T23:50:35.562Z,11.40
2023-05-12T23:53:03.398Z,11.40
2023-05-12T23:55:31.155Z,11.30
2023-05-12T23:57:59.144Z,11.30
